sensor_id;sensor_type;location;lat;lon;timestamp;P1;durP1;ratioP1;P2;durP2;ratioP2
5058;SDS011;2548;52.050;11.036;2022-12-15T00:01:49;46.72;;;19.65;;
5058;SDS011;2548;52.050;11.036;2022-12-15T00:04:34;44.85;;;21.55;;
5058;SDS011;2548;52.050;11.036;2022-12-15T00:07:19;43.47;;;19.95;;
5058;SDS011;2548;52.050;11.036;2022-12-15T00:10:04;47.00;;;21.52;;
5058;SDS011;2548;52.050;11.036;2022-12-15T00:12:49;42.70;;;21.02;;
5058;SDS011;2548;52.050;11.036;2022-12-15T00:15:34;49.17;;;21.08;;
5058;SDS011;2548;52.050;11.036;2022-12-15T00:18:20;55.28;;;22.85;;
5058;SDS011;2548;52.050;11.036;2022-12-15T00:21:05;63.25;;;29.88;;
5058;SDS011;2548;52.050;11.036;2022-12-15T00:23:50;60.60;;;31.70;;
5058;SDS011;2548;52.050;11.036;2022-12-15T00:26:35;59.40;;;31.73;;
5058;SDS011;2548;52.050;11.036;2022-12-15T00:29:20;56.63;;;28.02;;
5058;SDS011;2548;52.050;11.036;2022-12-15T00:32:05;50.70;;;25.88;;
5058;SDS011;2548;52.050;11.036;2022-12-15T00:34:51;55.95;;;26.00;;
5058;SDS011;2548;52.050;11.036;2022-12-15T00:37:36;58.58;;;25.30;;
5058;SDS011;2548;52.050;11.036;2022-12-15T00:40:21;51.45;;;23.98;;
5058;SDS011;2548;52.050;11.036;2022-12-15T00:42:48;57.08;;;23.33;;
5058;SDS011;2548;52.050;11.036;2022-12-15T00:45:16;53.40;;;23.38;;
5058;SDS011;2548;52.050;11.036;2022-12-15T00:47:43;43.75;;;24.85;;
5058;SDS011;2548;52.050;11.036;2022-12-15T00:50:11;50.22;;;23.90;;
5058;SDS011;2548;52.050;11.036;2022-12-15T00:52:56;45.35;;;24.35;;
5058;SDS011;2548;52.050;11.036;2022-12-15T00:55:41;45.95;;;23.00;;
5058;SDS011;2548;52.050;11.036;2022-12-15T00:58:26;57.03;;;21.45;;
5058;SDS011;2548;52.050;11.036;2022-12-15T01:01:11;38.38;;;20.30;;
5058;SDS011;2548;52.050;11.036;2022-12-15T01:03:56;42.55;;;21.10;;
5058;SDS011;2548;52.050;11.036;2022-12-15T01:06:42;46.58;;;22.55;;
5058;SDS011;2548;52.050;11.036;2022-12-15T01:09:27;36.97;;;21.77;;
5058;SDS011;2548;52.050;11.036;2022-12-15T01:12:12;49.53;;;24.23;;
5058;SDS011;2548;52.050;11.036;2022-12-15T01:14:57;48.83;;;25.15;;
5058;SDS011;2548;52.050;11.036;2022-12-15T01:17:42;48.90;;;23.45;;
5058;SDS011;2548;52.050;11.036;2022-12-15T01:20:27;47.72;;;21.00;;
5058;SDS011;2548;52.050;11.036;2022-12-15T01:23:00;46.28;;;22.58;;
5058;SDS011;2548;52.050;11.036;2022-12-15T01:25:27;41.65;;;21.77;;
5058;SDS011;2548;52.050;11.036;2022-12-15T01:27:55;43.10;;;21.95;;
5058;SDS011;2548;52.050;11.036;2022-12-15T01:30:23;40.42;;;23.27;;
5058;SDS011;2548;52.050;11.036;2022-12-15T01:32:51;40.42;;;20.00;;
5058;SDS011;2548;52.050;11.036;2022-12-15T01:35:19;49.08;;;24.00;;
5058;SDS011;2548;52.050;11.036;2022-12-15T01:37:47;38.63;;;22.25;;
5058;SDS011;2548;52.050;11.036;2022-12-15T01:40:16;41.00;;;21.25;;
5058;SDS011;2548;52.050;11.036;2022-12-15T01:43:03;38.50;;;19.88;;
5058;SDS011;2548;52.050;11.036;2022-12-15T01:45:49;46.88;;;20.67;;
5058;SDS011;2548;52.050;11.036;2022-12-15T01:48:21;49.50;;;20.20;;
5058;SDS011;2548;52.050;11.036;2022-12-15T01:50:56;53.05;;;22.30;;
5058;SDS011;2548;52.050;11.036;2022-12-15T01:53:27;44.22;;;21.23;;
5058;SDS011;2548;52.050;11.036;2022-12-15T01:56:00;41.38;;;21.73;;
5058;SDS011;2548;52.050;11.036;2022-12-15T01:58:30;40.88;;;20.02;;
5058;SDS011;2548;52.050;11.036;2022-12-15T02:01:00;42.90;;;21.13;;
5058;SDS011;2548;52.050;11.036;2022-12-15T02:03:28;37.40;;;20.00;;
5058;SDS011;2548;52.050;11.036;2022-12-15T02:05:57;46.85;;;20.80;;
5058;SDS011;2548;52.050;11.036;2022-12-15T02:08:26;40.67;;;20.15;;
5058;SDS011;2548;52.050;11.036;2022-12-15T02:11:01;37.35;;;20.35;;
5058;SDS011;2548;52.050;11.036;2022-12-15T02:13:52;44.63;;;19.77;;
5058;SDS011;2548;52.050;11.036;2022-12-15T02:16:27;36.38;;;20.45;;
5058;SDS011;2548;52.050;11.036;2022-12-15T02:19:07;44.63;;;21.10;;
5058;SDS011;2548;52.050;11.036;2022-12-15T02:21:53;42.00;;;19.65;;
5058;SDS011;2548;52.050;11.036;2022-12-15T02:24:44;37.78;;;19.75;;
5058;SDS011;2548;52.050;11.036;2022-12-15T02:27:49;39.17;;;20.15;;
5058;SDS011;2548;52.050;11.036;2022-12-15T02:30:29;40.30;;;19.20;;
5058;SDS011;2548;52.050;11.036;2022-12-15T02:33:09;39.30;;;20.67;;
5058;SDS011;2548;52.050;11.036;2022-12-15T02:35:53;49.42;;;21.98;;
5058;SDS011;2548;52.050;11.036;2022-12-15T02:38:27;32.10;;;17.48;;
5058;SDS011;2548;52.050;11.036;2022-12-15T02:40:56;38.08;;;19.55;;
5058;SDS011;2548;52.050;11.036;2022-12-15T02:43:25;41.63;;;20.42;;
5058;SDS011;2548;52.050;11.036;2022-12-15T02:45:58;37.38;;;20.30;;
5058;SDS011;2548;52.050;11.036;2022-12-15T02:48:37;41.45;;;20.02;;
5058;SDS011;2548;52.050;11.036;2022-12-15T02:51:18;35.50;;;18.05;;
5058;SDS011;2548;52.050;11.036;2022-12-15T02:54:03;40.35;;;20.70;;
5058;SDS011;2548;52.050;11.036;2022-12-15T02:56:42;38.70;;;19.98;;
5058;SDS011;2548;52.050;11.036;2022-12-15T02:59:13;35.70;;;19.48;;
5058;SDS011;2548;52.050;11.036;2022-12-15T03:01:52;38.90;;;19.30;;
5058;SDS011;2548;52.050;11.036;2022-12-15T03:04:22;44.10;;;20.80;;
5058;SDS011;2548;52.050;11.036;2022-12-15T03:06:52;34.85;;;18.00;;
5058;SDS011;2548;52.050;11.036;2022-12-15T03:09:21;34.40;;;18.17;;
5058;SDS011;2548;52.050;11.036;2022-12-15T03:11:49;33.85;;;17.88;;
5058;SDS011;2548;52.050;11.036;2022-12-15T03:14:16;37.40;;;20.08;;
5058;SDS011;2548;52.050;11.036;2022-12-15T03:16:44;35.63;;;17.65;;
5058;SDS011;2548;52.050;11.036;2022-12-15T03:19:13;33.15;;;18.55;;
5058;SDS011;2548;52.050;11.036;2022-12-15T03:21:40;32.42;;;17.67;;
5058;SDS011;2548;52.050;11.036;2022-12-15T03:24:08;40.58;;;18.58;;
5058;SDS011;2548;52.050;11.036;2022-12-15T03:26:35;36.60;;;16.38;;
5058;SDS011;2548;52.050;11.036;2022-12-15T03:29:02;32.63;;;17.90;;
5058;SDS011;2548;52.050;11.036;2022-12-15T03:31:30;32.17;;;18.17;;
5058;SDS011;2548;52.050;11.036;2022-12-15T03:33:57;33.28;;;18.73;;
5058;SDS011;2548;52.050;11.036;2022-12-15T03:36:26;38.33;;;20.08;;
5058;SDS011;2548;52.050;11.036;2022-12-15T03:38:53;30.70;;;18.63;;
5058;SDS011;2548;52.050;11.036;2022-12-15T03:41:21;35.65;;;18.42;;
5058;SDS011;2548;52.050;11.036;2022-12-15T03:43:48;36.63;;;18.05;;
5058;SDS011;2548;52.050;11.036;2022-12-15T03:46:16;39.20;;;17.00;;
5058;SDS011;2548;52.050;11.036;2022-12-15T03:48:43;30.65;;;17.05;;
5058;SDS011;2548;52.050;11.036;2022-12-15T03:51:11;33.03;;;17.42;;
5058;SDS011;2548;52.050;11.036;2022-12-15T03:53:39;30.58;;;18.02;;
5058;SDS011;2548;52.050;11.036;2022-12-15T03:56:07;35.85;;;19.80;;
5058;SDS011;2548;52.050;11.036;2022-12-15T03:58:35;36.45;;;19.88;;
5058;SDS011;2548;52.050;11.036;2022-12-15T04:01:08;34.95;;;18.00;;
5058;SDS011;2548;52.050;11.036;2022-12-15T04:03:36;31.17;;;17.45;;
5058;SDS011;2548;52.050;11.036;2022-12-15T04:06:04;36.95;;;18.92;;
5058;SDS011;2548;52.050;11.036;2022-12-15T04:08:32;32.42;;;17.80;;
5058;SDS011;2548;52.050;11.036;2022-12-15T04:11:01;32.20;;;18.05;;
5058;SDS011;2548;52.050;11.036;2022-12-15T04:13:28;31.83;;;17.67;;
5058;SDS011;2548;52.050;11.036;2022-12-15T04:15:56;31.30;;;17.23;;
5058;SDS011;2548;52.050;11.036;2022-12-15T04:18:23;33.88;;;17.80;;
5058;SDS011;2548;52.050;11.036;2022-12-15T04:20:50;33.53;;;17.70;;
5058;SDS011;2548;52.050;11.036;2022-12-15T04:23:18;38.42;;;18.67;;
5058;SDS011;2548;52.050;11.036;2022-12-15T04:25:45;33.15;;;17.42;;
5058;SDS011;2548;52.050;11.036;2022-12-15T04:28:31;32.15;;;16.95;;
5058;SDS011;2548;52.050;11.036;2022-12-15T04:31:17;32.95;;;18.23;;
5058;SDS011;2548;52.050;11.036;2022-12-15T04:34:05;31.35;;;16.33;;
5058;SDS011;2548;52.050;11.036;2022-12-15T04:36:54;38.70;;;18.42;;
5058;SDS011;2548;52.050;11.036;2022-12-15T04:39:41;38.85;;;18.38;;
5058;SDS011;2548;52.050;11.036;2022-12-15T04:42:29;29.95;;;16.15;;
5058;SDS011;2548;52.050;11.036;2022-12-15T04:45:17;39.42;;;19.83;;
5058;SDS011;2548;52.050;11.036;2022-12-15T04:48:04;32.78;;;16.63;;
5058;SDS011;2548;52.050;11.036;2022-12-15T04:50:49;28.40;;;17.10;;
5058;SDS011;2548;52.050;11.036;2022-12-15T04:53:35;33.95;;;17.83;;
5058;SDS011;2548;52.050;11.036;2022-12-15T04:56:19;33.83;;;18.15;;
5058;SDS011;2548;52.050;11.036;2022-12-15T04:59:04;34.67;;;17.73;;
5058;SDS011;2548;52.050;11.036;2022-12-15T05:01:51;30.10;;;17.75;;
5058;SDS011;2548;52.050;11.036;2022-12-15T05:04:35;38.97;;;17.08;;
5058;SDS011;2548;52.050;11.036;2022-12-15T05:07:21;44.35;;;21.73;;
5058;SDS011;2548;52.050;11.036;2022-12-15T05:10:08;35.63;;;18.75;;
5058;SDS011;2548;52.050;11.036;2022-12-15T05:12:53;40.10;;;19.15;;
5058;SDS011;2548;52.050;11.036;2022-12-15T05:15:38;38.67;;;19.80;;
5058;SDS011;2548;52.050;11.036;2022-12-15T05:18:24;40.42;;;18.95;;
5058;SDS011;2548;52.050;11.036;2022-12-15T05:21:09;25.48;;;16.40;;
5058;SDS011;2548;52.050;11.036;2022-12-15T05:23:54;41.65;;;19.85;;
5058;SDS011;2548;52.050;11.036;2022-12-15T05:26:39;33.38;;;17.63;;
5058;SDS011;2548;52.050;11.036;2022-12-15T05:29:24;31.67;;;17.20;;
5058;SDS011;2548;52.050;11.036;2022-12-15T05:32:09;22.13;;;14.48;;
5058;SDS011;2548;52.050;11.036;2022-12-15T05:34:39;32.20;;;17.63;;
5058;SDS011;2548;52.050;11.036;2022-12-15T05:37:06;30.80;;;18.05;;
5058;SDS011;2548;52.050;11.036;2022-12-15T05:39:34;29.60;;;17.30;;
5058;SDS011;2548;52.050;11.036;2022-12-15T05:42:01;33.95;;;17.08;;
5058;SDS011;2548;52.050;11.036;2022-12-15T05:44:28;28.90;;;16.38;;
5058;SDS011;2548;52.050;11.036;2022-12-15T05:46:56;34.47;;;16.05;;
5058;SDS011;2548;52.050;11.036;2022-12-15T05:49:23;30.35;;;15.95;;
5058;SDS011;2548;52.050;11.036;2022-12-15T05:51:52;31.65;;;17.38;;
5058;SDS011;2548;52.050;11.036;2022-12-15T05:54:19;30.77;;;16.88;;
5058;SDS011;2548;52.050;11.036;2022-12-15T05:56:47;31.60;;;18.38;;
5058;SDS011;2548;52.050;11.036;2022-12-15T05:59:15;36.75;;;18.23;;
5058;SDS011;2548;52.050;11.036;2022-12-15T06:01:42;30.65;;;18.25;;
5058;SDS011;2548;52.050;11.036;2022-12-15T06:04:10;33.10;;;16.42;;
5058;SDS011;2548;52.050;11.036;2022-12-15T06:06:38;37.53;;;17.02;;
5058;SDS011;2548;52.050;11.036;2022-12-15T06:09:07;28.90;;;15.60;;
5058;SDS011;2548;52.050;11.036;2022-12-15T06:11:35;30.40;;;17.20;;
5058;SDS011;2548;52.050;11.036;2022-12-15T06:14:03;42.47;;;20.20;;
5058;SDS011;2548;52.050;11.036;2022-12-15T06:16:30;32.15;;;18.67;;
5058;SDS011;2548;52.050;11.036;2022-12-15T06:18:59;38.97;;;19.23;;
5058;SDS011;2548;52.050;11.036;2022-12-15T06:21:28;34.45;;;18.45;;
5058;SDS011;2548;52.050;11.036;2022-12-15T06:23:56;35.88;;;21.58;;
5058;SDS011;2548;52.050;11.036;2022-12-15T06:26:27;44.63;;;23.02;;
5058;SDS011;2548;52.050;11.036;2022-12-15T06:28:57;40.10;;;23.40;;
5058;SDS011;2548;52.050;11.036;2022-12-15T06:31:27;40.88;;;20.55;;
5058;SDS011;2548;52.050;11.036;2022-12-15T06:33:54;36.88;;;20.52;;
5058;SDS011;2548;52.050;11.036;2022-12-15T06:36:22;34.08;;;19.70;;
5058;SDS011;2548;52.050;11.036;2022-12-15T06:38:50;35.38;;;19.13;;
5058;SDS011;2548;52.050;11.036;2022-12-15T06:41:19;34.75;;;17.75;;
5058;SDS011;2548;52.050;11.036;2022-12-15T06:43:49;37.08;;;21.17;;
5058;SDS011;2548;52.050;11.036;2022-12-15T06:46:17;36.47;;;18.58;;
5058;SDS011;2548;52.050;11.036;2022-12-15T06:48:45;32.55;;;18.52;;
5058;SDS011;2548;52.050;11.036;2022-12-15T06:51:13;31.98;;;17.80;;
5058;SDS011;2548;52.050;11.036;2022-12-15T06:53:42;30.02;;;16.33;;
5058;SDS011;2548;52.050;11.036;2022-12-15T06:56:15;25.45;;;14.85;;
5058;SDS011;2548;52.050;11.036;2022-12-15T06:58:45;39.45;;;18.90;;
5058;SDS011;2548;52.050;11.036;2022-12-15T07:01:15;29.75;;;15.20;;
5058;SDS011;2548;52.050;11.036;2022-12-15T07:03:43;32.55;;;17.10;;
5058;SDS011;2548;52.050;11.036;2022-12-15T07:06:11;31.00;;;15.38;;
5058;SDS011;2548;52.050;11.036;2022-12-15T07:08:40;26.13;;;14.30;;
5058;SDS011;2548;52.050;11.036;2022-12-15T07:11:09;28.33;;;15.38;;
5058;SDS011;2548;52.050;11.036;2022-12-15T07:13:38;30.17;;;15.98;;
5058;SDS011;2548;52.050;11.036;2022-12-15T07:16:06;25.77;;;13.60;;
5058;SDS011;2548;52.050;11.036;2022-12-15T07:18:37;26.90;;;14.98;;
5058;SDS011;2548;52.050;11.036;2022-12-15T07:21:06;29.08;;;15.20;;
5058;SDS011;2548;52.050;11.036;2022-12-15T07:23:35;29.55;;;15.70;;
5058;SDS011;2548;52.050;11.036;2022-12-15T07:26:02;25.30;;;13.82;;
5058;SDS011;2548;52.050;11.036;2022-12-15T07:28:32;28.83;;;15.02;;
5058;SDS011;2548;52.050;11.036;2022-12-15T07:31:00;24.98;;;14.00;;
5058;SDS011;2548;52.050;11.036;2022-12-15T07:33:28;25.17;;;15.52;;
5058;SDS011;2548;52.050;11.036;2022-12-15T07:35:58;33.38;;;14.60;;
5058;SDS011;2548;52.050;11.036;2022-12-15T07:38:26;34.40;;;17.15;;
5058;SDS011;2548;52.050;11.036;2022-12-15T07:40:58;29.50;;;15.60;;
5058;SDS011;2548;52.050;11.036;2022-12-15T07:43:26;31.55;;;15.75;;
5058;SDS011;2548;52.050;11.036;2022-12-15T07:45:55;28.90;;;15.75;;
5058;SDS011;2548;52.050;11.036;2022-12-15T07:48:23;23.67;;;14.00;;
5058;SDS011;2548;52.050;11.036;2022-12-15T07:50:51;32.53;;;17.23;;
5058;SDS011;2548;52.050;11.036;2022-12-15T07:53:24;31.20;;;15.20;;
5058;SDS011;2548;52.050;11.036;2022-12-15T07:55:53;22.65;;;13.98;;
5058;SDS011;2548;52.050;11.036;2022-12-15T07:58:21;28.73;;;16.60;;
5058;SDS011;2548;52.050;11.036;2022-12-15T08:00:49;28.77;;;15.85;;
5058;SDS011;2548;52.050;11.036;2022-12-15T08:03:16;41.50;;;17.83;;
5058;SDS011;2548;52.050;11.036;2022-12-15T08:05:44;36.17;;;17.48;;
5058;SDS011;2548;52.050;11.036;2022-12-15T08:08:11;32.03;;;17.00;;
5058;SDS011;2548;52.050;11.036;2022-12-15T08:10:40;31.83;;;17.80;;
5058;SDS011;2548;52.050;11.036;2022-12-15T08:13:08;29.52;;;15.60;;
5058;SDS011;2548;52.050;11.036;2022-12-15T08:15:35;29.73;;;16.55;;
5058;SDS011;2548;52.050;11.036;2022-12-15T08:18:03;25.52;;;14.68;;
5058;SDS011;2548;52.050;11.036;2022-12-15T08:20:32;25.05;;;14.98;;
5058;SDS011;2548;52.050;11.036;2022-12-15T08:23:00;26.92;;;14.80;;
5058;SDS011;2548;52.050;11.036;2022-12-15T08:25:27;30.40;;;16.15;;
5058;SDS011;2548;52.050;11.036;2022-12-15T08:27:56;31.13;;;15.95;;
5058;SDS011;2548;52.050;11.036;2022-12-15T08:30:23;26.02;;;14.93;;
5058;SDS011;2548;52.050;11.036;2022-12-15T08:32:51;23.73;;;14.98;;
5058;SDS011;2548;52.050;11.036;2022-12-15T08:35:18;32.15;;;14.50;;
5058;SDS011;2548;52.050;11.036;2022-12-15T08:37:46;23.65;;;13.05;;
5058;SDS011;2548;52.050;11.036;2022-12-15T08:40:13;24.13;;;14.13;;
5058;SDS011;2548;52.050;11.036;2022-12-15T08:42:41;19.45;;;12.93;;
5058;SDS011;2548;52.050;11.036;2022-12-15T08:45:10;28.08;;;14.88;;
5058;SDS011;2548;52.050;11.036;2022-12-15T08:47:38;22.90;;;12.98;;
5058;SDS011;2548;52.050;11.036;2022-12-15T08:50:05;22.27;;;13.65;;
5058;SDS011;2548;52.050;11.036;2022-12-15T08:52:34;23.38;;;13.55;;
5058;SDS011;2548;52.050;11.036;2022-12-15T08:55:07;23.73;;;14.27;;
5058;SDS011;2548;52.050;11.036;2022-12-15T08:57:36;27.30;;;14.93;;
5058;SDS011;2548;52.050;11.036;2022-12-15T09:00:05;20.85;;;13.40;;
5058;SDS011;2548;52.050;11.036;2022-12-15T09:02:35;20.02;;;11.93;;
5058;SDS011;2548;52.050;11.036;2022-12-15T09:05:02;35.53;;;13.75;;
5058;SDS011;2548;52.050;11.036;2022-12-15T09:07:31;24.00;;;13.88;;
5058;SDS011;2548;52.050;11.036;2022-12-15T09:09:59;22.60;;;14.13;;
5058;SDS011;2548;52.050;11.036;2022-12-15T09:12:26;19.45;;;13.02;;
5058;SDS011;2548;52.050;11.036;2022-12-15T09:14:54;18.80;;;13.10;;
5058;SDS011;2548;52.050;11.036;2022-12-15T09:17:21;20.55;;;12.90;;
5058;SDS011;2548;52.050;11.036;2022-12-15T09:19:50;22.52;;;13.10;;
5058;SDS011;2548;52.050;11.036;2022-12-15T09:22:18;26.30;;;15.40;;
5058;SDS011;2548;52.050;11.036;2022-12-15T09:24:47;22.77;;;14.57;;
5058;SDS011;2548;52.050;11.036;2022-12-15T09:27:15;26.80;;;18.05;;
5058;SDS011;2548;52.050;11.036;2022-12-15T09:29:42;33.75;;;14.15;;
5058;SDS011;2548;52.050;11.036;2022-12-15T09:32:10;30.67;;;16.95;;
5058;SDS011;2548;52.050;11.036;2022-12-15T09:34:38;46.95;;;17.27;;
5058;SDS011;2548;52.050;11.036;2022-12-15T09:37:07;39.88;;;14.88;;
5058;SDS011;2548;52.050;11.036;2022-12-15T09:39:35;42.05;;;14.85;;
5058;SDS011;2548;52.050;11.036;2022-12-15T09:42:03;23.05;;;13.32;;
5058;SDS011;2548;52.050;11.036;2022-12-15T09:44:31;25.40;;;13.32;;
5058;SDS011;2548;52.050;11.036;2022-12-15T09:49:53;26.40;;;14.90;;
5058;SDS011;2548;52.050;11.036;2022-12-15T09:52:25;23.92;;;13.82;;
5058;SDS011;2548;52.050;11.036;2022-12-15T09:54:54;24.52;;;14.50;;
5058;SDS011;2548;52.050;11.036;2022-12-15T09:57:24;29.15;;;15.45;;
5058;SDS011;2548;52.050;11.036;2022-12-15T10:00:02;24.23;;;14.98;;
5058;SDS011;2548;52.050;11.036;2022-12-15T10:02:45;23.58;;;15.60;;
5058;SDS011;2548;52.050;11.036;2022-12-15T10:05:42;25.17;;;16.23;;
5058;SDS011;2548;52.050;11.036;2022-12-15T10:08:29;22.75;;;15.32;;
5058;SDS011;2548;52.050;11.036;2022-12-15T10:11:00;23.33;;;16.30;;
5058;SDS011;2548;52.050;11.036;2022-12-15T10:13:32;28.77;;;16.27;;
5058;SDS011;2548;52.050;11.036;2022-12-15T10:16:11;29.13;;;16.10;;
5058;SDS011;2548;52.050;11.036;2022-12-15T10:18:47;28.42;;;16.55;;
5058;SDS011;2548;52.050;11.036;2022-12-15T10:21:21;23.98;;;15.43;;
5058;SDS011;2548;52.050;11.036;2022-12-15T10:23:53;24.40;;;14.48;;
5058;SDS011;2548;52.050;11.036;2022-12-15T10:26:25;27.88;;;15.18;;
5058;SDS011;2548;52.050;11.036;2022-12-15T10:29:07;24.27;;;15.23;;
5058;SDS011;2548;52.050;11.036;2022-12-15T10:31:51;28.40;;;15.40;;
5058;SDS011;2548;52.050;11.036;2022-12-15T10:34:23;28.48;;;17.27;;
5058;SDS011;2548;52.050;11.036;2022-12-15T10:36:53;24.92;;;15.90;;
5058;SDS011;2548;52.050;11.036;2022-12-15T10:39:34;28.70;;;16.88;;
5058;SDS011;2548;52.050;11.036;2022-12-15T10:42:10;22.13;;;14.48;;
5058;SDS011;2548;52.050;11.036;2022-12-15T10:44:40;23.58;;;15.88;;
5058;SDS011;2548;52.050;11.036;2022-12-15T10:47:09;29.73;;;16.60;;
5058;SDS011;2548;52.050;11.036;2022-12-15T10:49:41;26.33;;;15.52;;
5058;SDS011;2548;52.050;11.036;2022-12-15T10:52:14;25.17;;;14.80;;
5058;SDS011;2548;52.050;11.036;2022-12-15T10:54:47;31.75;;;17.70;;
5058;SDS011;2548;52.050;11.036;2022-12-15T10:57:18;36.28;;;18.23;;
5058;SDS011;2548;52.050;11.036;2022-12-15T10:59:47;31.48;;;19.35;;
5058;SDS011;2548;52.050;11.036;2022-12-15T11:02:24;31.60;;;16.38;;
5058;SDS011;2548;52.050;11.036;2022-12-15T11:05:02;28.48;;;15.75;;
5058;SDS011;2548;52.050;11.036;2022-12-15T11:07:38;26.42;;;16.42;;
5058;SDS011;2548;52.050;11.036;2022-12-15T11:10:13;24.98;;;14.65;;
5058;SDS011;2548;52.050;11.036;2022-12-15T11:12:43;25.80;;;15.82;;
5058;SDS011;2548;52.050;11.036;2022-12-15T11:18:20;26.55;;;15.30;;
5058;SDS011;2548;52.050;11.036;2022-12-15T11:20:55;26.33;;;14.20;;
5058;SDS011;2548;52.050;11.036;2022-12-15T11:23:31;21.08;;;14.40;;
5058;SDS011;2548;52.050;11.036;2022-12-15T11:26:19;26.95;;;15.77;;
5058;SDS011;2548;52.050;11.036;2022-12-15T11:28:53;94.97;;;45.28;;
5058;SDS011;2548;52.050;11.036;2022-12-15T11:31:26;89.88;;;44.20;;
5058;SDS011;2548;52.050;11.036;2022-12-15T11:33:57;83.50;;;37.80;;
5058;SDS011;2548;52.050;11.036;2022-12-15T11:36:31;79.05;;;41.58;;
5058;SDS011;2548;52.050;11.036;2022-12-15T11:39:12;46.78;;;26.85;;
5058;SDS011;2548;52.050;11.036;2022-12-15T11:41:50;25.88;;;17.60;;
5058;SDS011;2548;52.050;11.036;2022-12-15T11:44:23;26.50;;;14.73;;
5058;SDS011;2548;52.050;11.036;2022-12-15T11:46:58;24.33;;;14.50;;
5058;SDS011;2548;52.050;11.036;2022-12-15T11:52:43;21.73;;;14.20;;
5058;SDS011;2548;52.050;11.036;2022-12-15T11:55:20;19.58;;;13.98;;
5058;SDS011;2548;52.050;11.036;2022-12-15T11:58:07;21.70;;;13.50;;
5058;SDS011;2548;52.050;11.036;2022-12-15T12:00:48;18.00;;;13.20;;
5058;SDS011;2548;52.050;11.036;2022-12-15T12:03:24;19.85;;;11.45;;
5058;SDS011;2548;52.050;11.036;2022-12-15T12:05:59;21.05;;;13.13;;
5058;SDS011;2548;52.050;11.036;2022-12-15T12:08:45;21.20;;;11.05;;
5058;SDS011;2548;52.050;11.036;2022-12-15T12:11:30;16.60;;;11.52;;
5058;SDS011;2548;52.050;11.036;2022-12-15T12:14:09;16.67;;;11.55;;
5058;SDS011;2548;52.050;11.036;2022-12-15T12:16:45;21.35;;;12.77;;
5058;SDS011;2548;52.050;11.036;2022-12-15T12:19:21;16.10;;;10.85;;
5058;SDS011;2548;52.050;11.036;2022-12-15T12:21:53;17.13;;;11.00;;
5058;SDS011;2548;52.050;11.036;2022-12-15T12:24:27;19.55;;;12.15;;
5058;SDS011;2548;52.050;11.036;2022-12-15T12:26:59;17.00;;;11.00;;
5058;SDS011;2548;52.050;11.036;2022-12-15T12:29:32;22.08;;;11.52;;
5058;SDS011;2548;52.050;11.036;2022-12-15T12:32:03;19.42;;;12.57;;
5058;SDS011;2548;52.050;11.036;2022-12-15T12:34:37;18.15;;;12.13;;
5058;SDS011;2548;52.050;11.036;2022-12-15T12:37:18;16.65;;;11.20;;
5058;SDS011;2548;52.050;11.036;2022-12-15T12:39:51;25.55;;;12.73;;
5058;SDS011;2548;52.050;11.036;2022-12-15T12:42:23;17.80;;;11.18;;
5058;SDS011;2548;52.050;11.036;2022-12-15T12:44:58;16.65;;;11.68;;
5058;SDS011;2548;52.050;11.036;2022-12-15T12:47:28;14.77;;;11.05;;
5058;SDS011;2548;52.050;11.036;2022-12-15T12:49:59;19.10;;;12.13;;
5058;SDS011;2548;52.050;11.036;2022-12-15T12:52:30;16.75;;;11.52;;
5058;SDS011;2548;52.050;11.036;2022-12-15T12:55:01;21.27;;;12.25;;
5058;SDS011;2548;52.050;11.036;2022-12-15T12:57:36;21.10;;;13.07;;
5058;SDS011;2548;52.050;11.036;2022-12-15T13:00:14;20.83;;;12.10;;
5058;SDS011;2548;52.050;11.036;2022-12-15T13:05:47;18.63;;;10.70;;
5058;SDS011;2548;52.050;11.036;2022-12-15T13:17:13;16.45;;;10.63;;
5058;SDS011;2548;52.050;11.036;2022-12-15T13:22:51;19.13;;;11.18;;
5058;SDS011;2548;52.050;11.036;2022-12-15T13:28:17;18.73;;;12.60;;
5058;SDS011;2548;52.050;11.036;2022-12-15T13:33:57;14.45;;;11.70;;
5058;SDS011;2548;52.050;11.036;2022-12-15T13:36:41;19.05;;;11.27;;
5058;SDS011;2548;52.050;11.036;2022-12-15T13:39:30;17.25;;;10.68;;
5058;SDS011;2548;52.050;11.036;2022-12-15T13:42:26;14.48;;;9.95;;
5058;SDS011;2548;52.050;11.036;2022-12-15T13:45:09;18.27;;;10.45;;
5058;SDS011;2548;52.050;11.036;2022-12-15T13:47:57;11.07;;;9.18;;
5058;SDS011;2548;52.050;11.036;2022-12-15T13:50:30;19.90;;;10.60;;
5058;SDS011;2548;52.050;11.036;2022-12-15T13:53:05;14.45;;;9.80;;
5058;SDS011;2548;52.050;11.036;2022-12-15T13:55:50;16.70;;;10.27;;
5058;SDS011;2548;52.050;11.036;2022-12-15T13:58:21;14.00;;;10.25;;
5058;SDS011;2548;52.050;11.036;2022-12-15T14:00:50;14.65;;;9.98;;
5058;SDS011;2548;52.050;11.036;2022-12-15T14:03:19;12.10;;;10.32;;
5058;SDS011;2548;52.050;11.036;2022-12-15T14:05:52;16.30;;;10.75;;
5058;SDS011;2548;52.050;11.036;2022-12-15T14:08:22;16.67;;;11.30;;
5058;SDS011;2548;52.050;11.036;2022-12-15T14:10:51;17.55;;;11.65;;
5058;SDS011;2548;52.050;11.036;2022-12-15T14:13:21;18.25;;;11.73;;
5058;SDS011;2548;52.050;11.036;2022-12-15T14:15:52;23.55;;;11.15;;
5058;SDS011;2548;52.050;11.036;2022-12-15T14:18:23;15.82;;;9.88;;
5058;SDS011;2548;52.050;11.036;2022-12-15T14:20:54;15.65;;;10.70;;
5058;SDS011;2548;52.050;11.036;2022-12-15T14:23:23;12.68;;;9.98;;
5058;SDS011;2548;52.050;11.036;2022-12-15T14:25:52;12.05;;;9.27;;
5058;SDS011;2548;52.050;11.036;2022-12-15T14:28:26;16.60;;;10.40;;
5058;SDS011;2548;52.050;11.036;2022-12-15T14:30:57;11.82;;;9.20;;
5058;SDS011;2548;52.050;11.036;2022-12-15T14:33:26;16.42;;;11.60;;
5058;SDS011;2548;52.050;11.036;2022-12-15T14:35:56;15.82;;;10.10;;
5058;SDS011;2548;52.050;11.036;2022-12-15T14:38:25;17.63;;;10.93;;
5058;SDS011;2548;52.050;11.036;2022-12-15T14:40:59;20.65;;;11.50;;
5058;SDS011;2548;52.050;11.036;2022-12-15T14:43:30;16.83;;;9.68;;
5058;SDS011;2548;52.050;11.036;2022-12-15T14:46:04;15.05;;;11.13;;
5058;SDS011;2548;52.050;11.036;2022-12-15T14:48:34;11.77;;;10.25;;
5058;SDS011;2548;52.050;11.036;2022-12-15T14:51:05;16.02;;;10.68;;
5058;SDS011;2548;52.050;11.036;2022-12-15T14:53:36;13.32;;;9.88;;
5058;SDS011;2548;52.050;11.036;2022-12-15T14:56:12;24.77;;;12.45;;
5058;SDS011;2548;52.050;11.036;2022-12-15T14:58:46;24.08;;;10.93;;
5058;SDS011;2548;52.050;11.036;2022-12-15T15:01:21;14.40;;;10.27;;
5058;SDS011;2548;52.050;11.036;2022-12-15T15:03:57;14.98;;;10.60;;
5058;SDS011;2548;52.050;11.036;2022-12-15T15:06:34;13.80;;;10.00;;
5058;SDS011;2548;52.050;11.036;2022-12-15T15:09:10;14.57;;;8.75;;
5058;SDS011;2548;52.050;11.036;2022-12-15T15:11:44;20.35;;;10.88;;
5058;SDS011;2548;52.050;11.036;2022-12-15T15:14:16;21.83;;;9.50;;
5058;SDS011;2548;52.050;11.036;2022-12-15T15:16:58;12.75;;;10.50;;
5058;SDS011;2548;52.050;11.036;2022-12-15T15:19:29;15.75;;;10.90;;
5058;SDS011;2548;52.050;11.036;2022-12-15T15:21:59;20.85;;;10.60;;
5058;SDS011;2548;52.050;11.036;2022-12-15T15:24:30;16.98;;;9.95;;
5058;SDS011;2548;52.050;11.036;2022-12-15T15:27:22;16.80;;;10.98;;
5058;SDS011;2548;52.050;11.036;2022-12-15T15:29:51;16.13;;;9.18;;
5058;SDS011;2548;52.050;11.036;2022-12-15T15:32:19;17.80;;;10.75;;
5058;SDS011;2548;52.050;11.036;2022-12-15T15:34:49;14.85;;;10.30;;
5058;SDS011;2548;52.050;11.036;2022-12-15T15:37:19;14.35;;;10.27;;
5058;SDS011;2548;52.050;11.036;2022-12-15T15:39:47;19.05;;;10.05;;
5058;SDS011;2548;52.050;11.036;2022-12-15T15:42:16;16.50;;;10.70;;
5058;SDS011;2548;52.050;11.036;2022-12-15T15:44:43;15.13;;;10.38;;